sensor_id;sensor_type;location;lat;lon;timestamp;pressure;altitude;pressure_sealevel;temperature;humidity
9423;BME280;65863;49.506;10.400;2023-04-05T00:02:06;98573.47;;;-4.60;77.99
9423;BME280;65863;49.506;10.400;2023-04-05T00:04:54;98671.47;;;-3.96;78.04
9423;BME280;65863;49.506;10.400;2023-04-05T00:07:40;98577.97;;;-4.66;78.14
9423;BME280;65863;49.506;10.400;2023-04-05T00:10:24;98654.34;;;-4.26;78.30
9423;BME280;65863;49.506;10.400;2023-04-05T00:13:08;98627.56;;;-4.47;78.53
9423;BME280;65863;49.506;10.400;2023-04-05T00:15:52;98676.41;;;-4.17;78.92
9423;BME280;65863;49.506;10.400;2023-04-05T00:18:37;98614.72;;;-4.51;78.51
9423;BME280;65863;49.506;10.400;2023-04-05T00:21:23;98620.69;;;-4.26;78.97
9423;BME280;65863;49.506;10.400;2023-04-05T00:24:07;98629.97;;;-4.37;78.88
9423;BME280;65863;49.506;10.400;2023-04-05T00:26:58;98621.88;;;-4.40;78.72
9423;BME280;65863;49.506;10.400;2023-04-05T00:29:41;98517.00;;;-4.96;78.70
9423;BME280;65863;49.506;10.400;2023-04-05T00:32:26;98617.72;;;-4.32;79.06
9423;BME280;65863;49.506;10.400;2023-04-05T00:35:10;98607.63;;;-4.35;78.95
9423;BME280;65863;49.506;10.400;2023-04-05T00:37:55;98632.19;;;-4.19;79.32
9423;BME280;65863;49.506;10.400;2023-04-05T00:40:39;98617.03;;;-4.36;79.40
9423;BME280;65863;49.506;10.400;2023-04-05T00:43:23;98568.84;;;-4.76;79.42
9423;BME280;65863;49.506;10.400;2023-04-05T00:46:08;98550.38;;;-5.01;79.42
9423;BME280;65863;49.506;10.400;2023-04-05T00:48:53;98599.47;;;-4.52;79.63
9423;BME280;65863;49.506;10.400;2023-04-05T00:51:37;98587.31;;;-4.63;79.56
9423;BME280;65863;49.506;10.400;2023-04-05T00:54:22;98593.34;;;-4.56;79.72
9423;BME280;65863;49.506;10.400;2023-04-05T00:57:06;98600.44;;;-4.58;79.48
9423;BME280;65863;49.506;10.400;2023-04-05T00:59:51;98611.75;;;-4.56;79.64
9423;BME280;65863;49.506;10.400;2023-04-05T01:02:40;98602.53;;;-4.50;79.76
9423;BME280;65863;49.506;10.400;2023-04-05T01:05:39;98571.56;;;-4.89;79.94
9423;BME280;65863;49.506;10.400;2023-04-05T01:08:54;98602.19;;;-4.77;79.70
9423;BME280;65863;49.506;10.400;2023-04-05T01:11:44;98565.00;;;-4.91;79.92
9423;BME280;65863;49.506;10.400;2023-04-05T01:14:28;98560.47;;;-4.98;79.86
9423;BME280;65863;49.506;10.400;2023-04-05T01:17:13;98544.63;;;-5.20;80.07
9423;BME280;65863;49.506;10.400;2023-04-05T01:19:58;98586.94;;;-4.78;79.85
9423;BME280;65863;49.506;10.400;2023-04-05T01:38:32;98562.81;;;-5.26;80.29
9423;BME280;65863;49.506;10.400;2023-04-05T01:41:17;98529.03;;;-5.36;80.34
9423;BME280;65863;49.506;10.400;2023-04-05T01:44:03;98570.31;;;-5.01;80.35
9423;BME280;65863;49.506;10.400;2023-04-05T01:46:47;98541.50;;;-5.34;80.74
9423;BME280;65863;49.506;10.400;2023-04-05T01:49:31;98545.34;;;-5.32;80.77
9423;BME280;65863;49.506;10.400;2023-04-05T01:52:15;98496.47;;;-5.76;80.88
9423;BME280;65863;49.506;10.400;2023-04-05T01:55:00;98430.81;;;-6.34;80.89
9423;BME280;65863;49.506;10.400;2023-04-05T01:57:44;98454.34;;;-5.78;80.81
9423;BME280;65863;49.506;10.400;2023-04-05T02:00:28;98561.31;;;-5.14;80.90
9423;BME280;65863;49.506;10.400;2023-04-05T02:03:12;98411.38;;;-6.07;81.05
9423;BME280;65863;49.506;10.400;2023-04-05T02:05:56;98570.44;;;-5.04;81.21
9423;BME280;65863;49.506;10.400;2023-04-05T02:08:41;98554.34;;;-5.31;81.24
9423;BME280;65863;49.506;10.400;2023-04-05T02:11:25;98540.06;;;-5.39;81.26
9423;BME280;65863;49.506;10.400;2023-04-05T02:14:09;98528.41;;;-5.56;81.46
9423;BME280;65863;49.506;10.400;2023-04-05T02:16:53;98373.03;;;-6.66;81.05
9423;BME280;65863;49.506;10.400;2023-04-05T02:19:39;98520.56;;;-5.71;81.40
9423;BME280;65863;49.506;10.400;2023-04-05T02:22:29;98535.50;;;-5.59;81.52
9423;BME280;65863;49.506;10.400;2023-04-05T02:25:14;98558.91;;;-5.41;81.09
9423;BME280;65863;49.506;10.400;2023-04-05T02:27:58;98534.50;;;-5.65;81.48
9423;BME280;65863;49.506;10.400;2023-04-05T02:30:42;98516.22;;;-5.84;81.39
9423;BME280;65863;49.506;10.400;2023-04-05T02:33:27;98565.25;;;-5.44;81.22
9423;BME280;65863;49.506;10.400;2023-04-05T02:36:12;98522.38;;;-5.64;81.43
9423;BME280;65863;49.506;10.400;2023-04-05T02:38:56;98474.06;;;-6.00;81.71
9423;BME280;65863;49.506;10.400;2023-04-05T02:41:40;98515.28;;;-5.78;81.62
9423;BME280;65863;49.506;10.400;2023-04-05T02:44:28;98524.97;;;-5.90;81.64
9423;BME280;65863;49.506;10.400;2023-04-05T02:47:12;98422.03;;;-6.59;81.63
9423;BME280;65863;49.506;10.400;2023-04-05T02:50:02;98565.47;;;-5.84;81.91
9423;BME280;65863;49.506;10.400;2023-04-05T02:52:52;98480.91;;;-6.41;81.50
9423;BME280;65863;49.506;10.400;2023-04-05T02:55:37;98541.59;;;-5.67;82.22
9423;BME280;65863;49.506;10.400;2023-04-05T02:58:24;98423.91;;;-6.55;81.63
9423;BME280;65863;49.506;10.400;2023-04-05T03:01:09;98417.75;;;-6.76;82.33
9423;BME280;65863;49.506;10.400;2023-04-05T03:03:53;98551.53;;;-5.90;82.74
9423;BME280;65863;49.506;10.400;2023-04-05T03:06:37;98247.78;;;-7.79;82.04
9423;BME280;65863;49.506;10.400;2023-04-05T03:09:23;98543.19;;;-5.99;82.12
9423;BME280;65863;49.506;10.400;2023-04-05T03:12:12;98319.16;;;-7.48;82.33
9423;BME280;65863;49.506;10.400;2023-04-05T03:14:59;98556.81;;;-5.83;82.29
9423;BME280;65863;49.506;10.400;2023-04-05T03:17:45;98500.22;;;-6.15;82.60
9423;BME280;65863;49.506;10.400;2023-04-05T03:20:32;98540.59;;;-5.90;82.27
9423;BME280;65863;49.506;10.400;2023-04-05T03:23:17;98523.97;;;-6.12;82.82
9423;BME280;65863;49.506;10.400;2023-04-05T03:26:03;98544.94;;;-5.93;82.46
9423;BME280;65863;49.506;10.400;2023-04-05T03:28:52;98413.75;;;-6.71;82.48
9423;BME280;65863;49.506;10.400;2023-04-05T03:31:44;98543.66;;;-5.72;82.79
9423;BME280;65863;49.506;10.400;2023-04-05T03:34:30;98372.69;;;-6.84;82.36
9423;BME280;65863;49.506;10.400;2023-04-05T03:37:20;98506.88;;;-6.00;82.73
9423;BME280;65863;49.506;10.400;2023-04-05T03:40:14;98442.69;;;-6.58;82.94
9423;BME280;65863;49.506;10.400;2023-04-05T03:42:59;98505.59;;;-6.12;83.14
9423;BME280;65863;49.506;10.400;2023-04-05T03:45:44;98454.03;;;-6.59;82.84
9423;BME280;65863;49.506;10.400;2023-04-05T03:48:28;98300.28;;;-7.58;82.85
9423;BME280;65863;49.506;10.400;2023-04-05T03:51:12;98391.88;;;-7.41;82.93
9423;BME280;65863;49.506;10.400;2023-04-05T03:53:56;98375.03;;;-7.19;83.24
9423;BME280;65863;49.506;10.400;2023-04-05T03:56:43;98558.41;;;-6.15;82.90
9423;BME280;65863;49.506;10.400;2023-04-05T03:59:31;98543.84;;;-6.28;83.28
9423;BME280;65863;49.506;10.400;2023-04-05T04:02:18;98541.56;;;-6.30;83.25
9423;BME280;65863;49.506;10.400;2023-04-05T04:05:01;98507.97;;;-6.63;83.20
9423;BME280;65863;49.506;10.400;2023-04-05T04:07:47;98447.91;;;-7.00;83.44
9423;BME280;65863;49.506;10.400;2023-04-05T04:10:33;98541.28;;;-6.52;83.89
9423;BME280;65863;49.506;10.400;2023-04-05T04:13:18;98287.84;;;-7.96;83.06
9423;BME280;65863;49.506;10.400;2023-04-05T04:16:07;98512.03;;;-6.35;83.57
9423;BME280;65863;49.506;10.400;2023-04-05T04:19:03;98545.00;;;-6.09;83.66
9423;BME280;65863;49.506;10.400;2023-04-05T04:22:04;98461.97;;;-6.65;83.82
9423;BME280;65863;49.506;10.400;2023-04-05T04:25:11;98463.59;;;-6.67;83.70
9423;BME280;65863;49.506;10.400;2023-04-05T04:28:19;98537.28;;;-6.14;83.96
9423;BME280;65863;49.506;10.400;2023-04-05T04:31:31;98509.44;;;-6.42;84.00
9423;BME280;65863;49.506;10.400;2023-04-05T04:34:30;98471.84;;;-6.71;83.92
9423;BME280;65863;49.506;10.400;2023-04-05T04:37:31;98536.66;;;-6.55;84.03
9423;BME280;65863;49.506;10.400;2023-04-05T04:40:37;98363.53;;;-7.64;84.14
9423;BME280;65863;49.506;10.400;2023-04-05T04:43:41;98369.38;;;-7.45;84.35
9423;BME280;65863;49.506;10.400;2023-04-05T04:46:43;98533.63;;;-6.41;84.42
9423;BME280;65863;49.506;10.400;2023-04-05T04:49:45;98523.44;;;-6.40;84.57
9423;BME280;65863;49.506;10.400;2023-04-05T04:52:30;98415.97;;;-7.19;84.46
9423;BME280;65863;49.506;10.400;2023-04-05T04:55:13;98330.41;;;-7.82;84.55
9423;BME280;65863;49.506;10.400;2023-04-05T04:57:57;98313.69;;;-7.84;84.22
9423;BME280;65863;49.506;10.400;2023-04-05T05:00:42;98565.50;;;-6.17;84.84
9423;BME280;65863;49.506;10.400;2023-04-05T05:03:27;98446.94;;;-6.73;84.72
9423;BME280;65863;49.506;10.400;2023-04-05T05:06:15;98414.31;;;-6.97;84.69
9423;BME280;65863;49.506;10.400;2023-04-05T05:09:00;98343.63;;;-7.44;84.98
9423;BME280;65863;49.506;10.400;2023-04-05T05:11:45;98554.28;;;-6.23;85.22
9423;BME280;65863;49.506;10.400;2023-04-05T05:14:29;98412.59;;;-7.07;84.84
9423;BME280;65863;49.506;10.400;2023-04-05T05:17:13;98448.63;;;-6.79;84.86
9423;BME280;65863;49.506;10.400;2023-04-05T05:19:57;98460.09;;;-6.51;84.98
9423;BME280;65863;49.506;10.400;2023-04-05T05:22:43;98531.88;;;-5.85;84.92
9423;BME280;65863;49.506;10.400;2023-04-05T05:25:27;98510.56;;;-4.51;85.84
9423;BME280;65863;49.506;10.400;2023-04-05T05:28:11;98493.56;;;-3.28;86.85
9423;BME280;65863;49.506;10.400;2023-04-05T05:30:55;98476.28;;;-1.84;86.60
9423;BME280;65863;49.506;10.400;2023-04-05T05:33:38;98546.22;;;-0.03;85.90
9423;BME280;65863;49.506;10.400;2023-04-05T05:36:23;98545.03;;;0.85;84.76
9423;BME280;65863;49.506;10.400;2023-04-05T05:39:08;98548.84;;;1.78;82.67
9423;BME280;65863;49.506;10.400;2023-04-05T05:41:52;98553.38;;;2.52;79.31
9423;BME280;65863;49.506;10.400;2023-04-05T05:44:36;98460.41;;;2.10;75.04
9423;BME280;65863;49.506;10.400;2023-04-05T05:47:21;98494.69;;;3.00;71.03
9423;BME280;65863;49.506;10.400;2023-04-05T05:50:05;98532.44;;;3.18;67.32
9423;BME280;65863;49.506;10.400;2023-04-05T05:52:50;98538.31;;;3.26;64.82
9423;BME280;65863;49.506;10.400;2023-04-05T05:55:34;98577.13;;;3.78;62.39
9423;BME280;65863;49.506;10.400;2023-04-05T05:58:19;98489.03;;;3.15;59.79
9423;BME280;65863;49.506;10.400;2023-04-05T06:01:05;98543.75;;;4.10;58.47
9423;BME280;65863;49.506;10.400;2023-04-05T06:03:49;98527.03;;;4.48;57.41
9423;BME280;65863;49.506;10.400;2023-04-05T06:06:34;98523.94;;;5.12;56.18
9423;BME280;65863;49.506;10.400;2023-04-05T06:09:17;98540.41;;;6.12;54.45
9423;BME280;65863;49.506;10.400;2023-04-05T06:12:02;98530.84;;;6.66;52.20
9423;BME280;65863;49.506;10.400;2023-04-05T06:14:45;98547.84;;;6.68;50.48
9423;BME280;65863;49.506;10.400;2023-04-05T06:17:29;98522.34;;;6.41;48.73
9423;BME280;65863;49.506;10.400;2023-04-05T06:20:13;98496.34;;;5.82;47.96
9423;BME280;65863;49.506;10.400;2023-04-05T06:22:58;98545.84;;;6.57;48.74
9423;BME280;65863;49.506;10.400;2023-04-05T06:25:42;98396.13;;;5.48;47.54
9423;BME280;65863;49.506;10.400;2023-04-05T06:28:26;98441.88;;;5.98;47.49
9423;BME280;65863;49.506;10.400;2023-04-05T06:31:10;98557.69;;;7.28;46.94
9423;BME280;65863;49.506;10.400;2023-04-05T06:33:54;98515.34;;;6.70;46.04
9423;BME280;65863;49.506;10.400;2023-04-05T06:36:38;98520.41;;;5.34;46.11
9423;BME280;65863;49.506;10.400;2023-04-05T06:39:22;98547.78;;;4.09;47.96
9423;BME280;65863;49.506;10.400;2023-04-05T06:42:06;98549.34;;;3.20;49.63
9423;BME280;65863;49.506;10.400;2023-04-05T06:44:58;98534.47;;;3.82;52.04
9423;BME280;65863;49.506;10.400;2023-04-05T06:47:42;98467.88;;;4.47;52.56
9423;BME280;65863;49.506;10.400;2023-04-05T06:50:26;98569.41;;;4.92;51.93
9423;BME280;65863;49.506;10.400;2023-04-05T06:53:10;98530.34;;;4.63;51.73
9423;BME280;65863;49.506;10.400;2023-04-05T06:55:58;98564.72;;;5.83;51.43
9423;BME280;65863;49.506;10.400;2023-04-05T06:58:42;98558.38;;;5.94;50.41
9423;BME280;65863;49.506;10.400;2023-04-05T07:01:27;98546.75;;;5.27;50.77
9423;BME280;65863;49.506;10.400;2023-04-05T07:04:12;98545.41;;;5.00;50.88
9423;BME280;65863;49.506;10.400;2023-04-05T07:06:56;98542.72;;;4.57;51.74
9423;BME280;65863;49.506;10.400;2023-04-05T07:09:41;98473.81;;;3.69;52.33
9423;BME280;65863;49.506;10.400;2023-04-05T07:12:25;98487.44;;;3.35;53.87
9423;BME280;65863;49.506;10.400;2023-04-05T07:15:10;98519.03;;;2.90;55.14
9423;BME280;65863;49.506;10.400;2023-04-05T07:17:54;98529.69;;;2.51;56.26
9423;BME280;65863;49.506;10.400;2023-04-05T07:20:38;98515.53;;;2.08;57.30
9423;BME280;65863;49.506;10.400;2023-04-05T07:23:22;98541.59;;;2.36;58.92
9423;BME280;65863;49.506;10.400;2023-04-05T07:26:06;98534.84;;;2.58;59.50
9423;BME280;65863;49.506;10.400;2023-04-05T07:28:51;98541.88;;;2.80;59.89
9423;BME280;65863;49.506;10.400;2023-04-05T07:31:35;98534.81;;;2.79;60.10
9423;BME280;65863;49.506;10.400;2023-04-05T07:34:19;98484.31;;;2.48;60.21
9423;BME280;65863;49.506;10.400;2023-04-05T07:37:04;98540.47;;;2.69;59.52
9423;BME280;65863;49.506;10.400;2023-04-05T07:39:49;98505.41;;;2.66;59.80
9423;BME280;65863;49.506;10.400;2023-04-05T07:42:33;98502.25;;;3.00;60.15
9423;BME280;65863;49.506;10.400;2023-04-05T07:45:17;98541.81;;;3.53;59.59
9423;BME280;65863;49.506;10.400;2023-04-05T07:48:01;98501.59;;;3.10;59.09
9423;BME280;65863;49.506;10.400;2023-04-05T07:50:45;98558.84;;;3.66;58.61
9423;BME280;65863;49.506;10.400;2023-04-05T07:53:30;98521.00;;;3.69;58.16
9423;BME280;65863;49.506;10.400;2023-04-05T07:56:14;98549.16;;;3.88;57.35
9423;BME280;65863;49.506;10.400;2023-04-05T07:58:59;98535.63;;;3.37;57.02
9423;BME280;65863;49.506;10.400;2023-04-05T08:01:43;98531.34;;;3.68;57.20
9423;BME280;65863;49.506;10.400;2023-04-05T08:04:27;98540.06;;;3.55;56.73
9423;BME280;65863;49.506;10.400;2023-04-05T08:07:11;98529.25;;;3.57;56.59
9423;BME280;65863;49.506;10.400;2023-04-05T08:09:55;98518.59;;;3.88;56.08
9423;BME280;65863;49.506;10.400;2023-04-05T08:12:40;98509.41;;;3.70;55.67
9423;BME280;65863;49.506;10.400;2023-04-05T08:15:24;98466.97;;;3.70;55.58
9423;BME280;65863;49.506;10.400;2023-04-05T08:18:08;98496.81;;;4.24;54.51
9423;BME280;65863;49.506;10.400;2023-04-05T08:20:54;98541.31;;;4.29;53.14
9423;BME280;65863;49.506;10.400;2023-04-05T08:23:38;98361.09;;;3.07;52.89
9423;BME280;65863;49.506;10.400;2023-04-05T08:26:22;98219.72;;;2.44;52.35
9423;BME280;65863;49.506;10.400;2023-04-05T08:29:07;98182.91;;;2.37;51.42
9423;BME280;65863;49.506;10.400;2023-04-05T08:31:51;98521.41;;;5.31;51.35
9423;BME280;65863;49.506;10.400;2023-04-05T08:34:36;98383.91;;;4.32;51.71
9423;BME280;65863;49.506;10.400;2023-04-05T08:37:21;98370.91;;;3.95;51.44
9423;BME280;65863;49.506;10.400;2023-04-05T08:40:06;98384.69;;;4.27;51.10
9423;BME280;65863;49.506;10.400;2023-04-05T08:43:00;98199.53;;;3.24;51.55
9423;BME280;65863;49.506;10.400;2023-04-05T08:45:49;98183.25;;;3.66;50.64
9423;BME280;65863;49.506;10.400;2023-04-05T08:48:34;98371.56;;;4.39;48.93
9423;BME280;65863;49.506;10.400;2023-04-05T08:51:20;98292.22;;;4.55;49.00
9423;BME280;65863;49.506;10.400;2023-04-05T08:54:04;98521.56;;;6.99;48.90
9423;BME280;65863;49.506;10.400;2023-04-05T08:56:49;98461.88;;;5.85;45.90
9423;BME280;65863;49.506;10.400;2023-04-05T08:59:37;98546.03;;;6.70;46.08
9423;BME280;65863;49.506;10.400;2023-04-05T09:02:24;98526.34;;;6.51;45.96
9423;BME280;65863;49.506;10.400;2023-04-05T09:05:08;98411.44;;;6.11;45.84
9423;BME280;65863;49.506;10.400;2023-04-05T09:07:53;98508.78;;;6.68;45.02
9423;BME280;65863;49.506;10.400;2023-04-05T09:10:39;98531.88;;;7.10;44.94
9423;BME280;65863;49.506;10.400;2023-04-05T09:13:23;98537.69;;;7.54;44.70
9423;BME280;65863;49.506;10.400;2023-04-05T09:16:07;98511.28;;;7.55;44.05
9423;BME280;65863;49.506;10.400;2023-04-05T09:18:51;98474.34;;;7.01;43.34
9423;BME280;65863;49.506;10.400;2023-04-05T09:22:06;98490.31;;;7.37;43.90
9423;BME280;65863;49.506;10.400;2023-04-05T09:24:57;98506.50;;;8.05;43.77
9423;BME280;65863;49.506;10.400;2023-04-05T09:27:53;98531.50;;;8.22;42.26
9423;BME280;65863;49.506;10.400;2023-04-05T09:30:44;98527.09;;;7.77;41.73
9423;BME280;65863;49.506;10.400;2023-04-05T09:33:29;98509.06;;;8.03;42.36
9423;BME280;65863;49.506;10.400;2023-04-05T09:36:13;98505.22;;;8.74;41.89
9423;BME280;65863;49.506;10.400;2023-04-05T09:39:05;98449.97;;;8.12;40.16
9423;BME280;65863;49.506;10.400;2023-04-05T09:42:10;98511.19;;;9.22;40.92
9423;BME280;65863;49.506;10.400;2023-04-05T09:44:59;98498.41;;;8.70;38.80
9423;BME280;65863;49.506;10.400;2023-04-05T09:47:55;98374.63;;;7.57;38.08
9423;BME280;65863;49.506;10.400;2023-04-05T09:50:43;98470.28;;;8.18;38.05
9423;BME280;65863;49.506;10.400;2023-04-05T09:53:27;98493.09;;;8.22;37.91
9423;BME280;65863;49.506;10.400;2023-04-05T09:56:12;98461.94;;;8.13;38.08
9423;BME280;65863;49.506;10.400;2023-04-05T09:58:58;98514.38;;;8.31;37.80
9423;BME280;65863;49.506;10.400;2023-04-05T10:01:44;98425.25;;;8.41;39.06
9423;BME280;65863;49.506;10.400;2023-04-05T10:04:42;98494.41;;;8.40;37.50
9423;BME280;65863;49.506;10.400;2023-04-05T10:07:27;98479.69;;;7.90;38.56
9423;BME280;65863;49.506;10.400;2023-04-05T10:10:12;98457.84;;;8.14;38.61
9423;BME280;65863;49.506;10.400;2023-04-05T10:12:59;98459.97;;;8.51;38.15
9423;BME280;65863;49.506;10.400;2023-04-05T10:15:45;98507.78;;;8.91;38.56
9423;BME280;65863;49.506;10.400;2023-04-05T10:18:37;98456.44;;;8.26;38.14
9423;BME280;65863;49.506;10.400;2023-04-05T10:21:28;98479.47;;;8.13;38.21
9423;BME280;65863;49.506;10.400;2023-04-05T10:24:28;98466.78;;;7.63;38.30
9423;BME280;65863;49.506;10.400;2023-04-05T10:27:25;98509.28;;;8.30;38.96
9423;BME280;65863;49.506;10.400;2023-04-05T10:30:12;98488.41;;;8.55;39.03
9423;BME280;65863;49.506;10.400;2023-04-05T10:33:06;98481.69;;;8.45;39.01
9423;BME280;65863;49.506;10.400;2023-04-05T10:36:08;98468.16;;;8.24;38.52
9423;BME280;65863;49.506;10.400;2023-04-05T10:41:48;98499.25;;;7.90;38.39
9423;BME280;65863;49.506;10.400;2023-04-05T10:44:35;98444.53;;;7.51;38.57
9423;BME280;65863;49.506;10.400;2023-04-05T10:47:21;98480.50;;;7.30;38.48
9423;BME280;65863;49.506;10.400;2023-04-05T10:50:07;98480.75;;;7.27;39.33
9423;BME280;65863;49.506;10.400;2023-04-05T10:52:51;98498.63;;;7.12;40.18
9423;BME280;65863;49.506;10.400;2023-04-05T10:55:37;98496.81;;;7.20;40.78
9423;BME280;65863;49.506;10.400;2023-04-05T10:58:21;98486.50;;;7.95;40.53
9423;BME280;65863;49.506;10.400;2023-04-05T11:01:07;98462.97;;;8.34;39.84
9423;BME280;65863;49.506;10.400;2023-04-05T11:03:52;98406.16;;;8.01;38.86
9423;BME280;65863;49.506;10.400;2023-04-05T11:06:37;98463.75;;;8.10;37.98
9423;BME280;65863;49.506;10.400;2023-04-05T11:09:23;98490.88;;;8.40;38.33
9423;BME280;65863;49.506;10.400;2023-04-05T11:12:07;98458.16;;;8.73;38.32
9423;BME280;65863;49.506;10.400;2023-04-05T11:14:51;98456.34;;;8.94;38.00
9423;BME280;65863;49.506;10.400;2023-04-05T11:17:35;98454.66;;;8.48;38.23
9423;BME280;65863;49.506;10.400;2023-04-05T11:20:20;98420.41;;;8.79;38.44
9423;BME280;65863;49.506;10.400;2023-04-05T11:23:04;98419.72;;;8.92;37.39
9423;BME280;65863;49.506;10.400;2023-04-05T11:26:08;98456.69;;;9.04;36.56
9423;BME280;65863;49.506;10.400;2023-04-05T11:28:56;98437.34;;;8.87;36.89
9423;BME280;65863;49.506;10.400;2023-04-05T11:31:57;98472.84;;;9.30;37.20
9423;BME280;65863;49.506;10.400;2023-04-05T11:34:43;98454.41;;;9.22;37.48
9423;BME280;65863;49.506;10.400;2023-04-05T11:40:43;98435.72;;;9.11;37.65
9423;BME280;65863;49.506;10.400;2023-04-05T11:43:27;98406.69;;;8.95;37.56
9423;BME280;65863;49.506;10.400;2023-04-05T11:46:13;98444.72;;;9.69;36.92
9423;BME280;65863;49.506;10.400;2023-04-05T11:49:01;98394.06;;;8.88;36.37
9423;BME280;65863;49.506;10.400;2023-04-05T11:51:45;98425.38;;;9.06;36.64
9423;BME280;65863;49.506;10.400;2023-04-05T11:54:32;98418.09;;;9.29;36.94
9423;BME280;65863;49.506;10.400;2023-04-05T11:57:21;98417.91;;;9.41;37.49
9423;BME280;65863;49.506;10.400;2023-04-05T12:00:06;98410.09;;;9.79;37.13
9423;BME280;65863;49.506;10.400;2023-04-05T12:02:55;98420.13;;;10.28;36.19
9423;BME280;65863;49.506;10.400;2023-04-05T12:11:25;98429.50;;;10.31;35.48
9423;BME280;65863;49.506;10.400;2023-04-05T12:14:10;98362.44;;;9.66;34.81
9423;BME280;65863;49.506;10.400;2023-04-05T12:16:53;98382.38;;;10.03;35.31
9423;BME280;65863;49.506;10.400;2023-04-05T12:19:38;98336.03;;;9.75;34.84
9423;BME280;65863;49.506;10.400;2023-04-05T12:22:22;98403.72;;;10.32;35.13
9423;BME280;65863;49.506;10.400;2023-04-05T12:25:06;98373.28;;;10.23;35.23
9423;BME280;65863;49.506;10.400;2023-04-05T12:27:51;98359.09;;;9.94;34.82
9423;BME280;65863;49.506;10.400;2023-04-05T12:30:50;98379.34;;;10.00;34.60
9423;BME280;65863;49.506;10.400;2023-04-05T12:33:39;98378.06;;;9.61;35.41
9423;BME280;65863;49.506;10.400;2023-04-05T12:36:26;98332.78;;;9.44;35.28
9423;BME280;65863;49.506;10.400;2023-04-05T12:39:11;98388.91;;;9.25;35.01
9423;BME280;65863;49.506;10.400;2023-04-05T12:41:57;98401.97;;;9.36;36.51
9423;BME280;65863;49.506;10.400;2023-04-05T12:44:42;98390.38;;;9.58;36.79
9423;BME280;65863;49.506;10.400;2023-04-05T12:47:27;98388.44;;;9.80;36.06
9423;BME280;65863;49.506;10.400;2023-04-05T12:50:15;98324.06;;;9.61;36.76
9423;BME280;65863;49.506;10.400;2023-04-05T12:53:03;98291.81;;;9.01;36.66
9423;BME280;65863;49.506;10.400;2023-04-05T12:55:55;98384.53;;;9.96;37.25
9423;BME280;65863;49.506;10.400;2023-04-05T12:58:40;98335.56;;;10.11;36.31
9423;BME280;65863;49.506;10.400;2023-04-05T13:01:24;98330.63;;;9.90;36.04
9423;BME280;65863;49.506;10.400;2023-04-05T13:04:08;98227.09;;;9.18;35.45
9423;BME280;65863;49.506;10.400;2023-04-05T13:06:52;98359.59;;;10.20;35.78
9423;BME280;65863;49.506;10.400;2023-04-05T13:09:35;98345.31;;;10.79;35.53
9423;BME280;65863;49.506;10.400;2023-04-05T13:12:19;98393.84;;;10.87;35.37
9423;BME280;65863;49.506;10.400;2023-04-05T13:15:04;98306.72;;;10.79;34.99
9423;BME280;65863;49.506;10.400;2023-04-05T13:17:48;98354.19;;;11.62;33.79
9423;BME280;65863;49.506;10.400;2023-04-05T13:20:33;98341.66;;;11.13;33.01
9423;BME280;65863;49.506;10.400;2023-04-05T13:23:17;98307.69;;;11.03;34.15
9423;BME280;65863;49.506;10.400;2023-04-05T13:26:02;98268.03;;;10.64;33.42
9423;BME280;65863;49.506;10.400;2023-04-05T13:28:46;98296.06;;;10.78;34.25
9423;BME280;65863;49.506;10.400;2023-04-05T13:31:31;98359.97;;;11.56;34.02
9423;BME280;65863;49.506;10.400;2023-04-05T13:34:16;98308.97;;;11.23;33.46
9423;BME280;65863;49.506;10.400;2023-04-05T13:37:00;98289.19;;;11.08;33.69
9423;BME280;65863;49.506;10.400;2023-04-05T13:39:44;98305.22;;;10.78;33.28
9423;BME280;65863;49.506;10.400;2023-04-05T13:42:28;98329.75;;;11.49;33.69
9423;BME280;65863;49.506;10.400;2023-04-05T13:45:12;98339.75;;;11.08;33.20
9423;BME280;65863;49.506;10.400;2023-04-05T13:47:57;98313.19;;;10.88;33.69
9423;BME280;65863;49.506;10.400;2023-04-05T13:50:40;98227.31;;;10.50;34.13
9423;BME280;65863;49.506;10.400;2023-04-05T13:53:25;98322.41;;;10.54;34.50
9423;BME280;65863;49.506;10.400;2023-04-05T13:56:09;98259.69;;;9.55;34.58
9423;BME280;65863;49.506;10.400;2023-04-05T13:58:53;98312.72;;;9.67;35.33
9423;BME280;65863;49.506;10.400;2023-04-05T14:01:37;98308.81;;;9.96;35.46
9423;BME280;65863;49.506;10.400;2023-04-05T14:04:22;98317.91;;;9.76;35.36
9423;BME280;65863;49.506;10.400;2023-04-05T14:07:06;98203.06;;;8.95;35.52
9423;BME280;65863;49.506;10.400;2023-04-05T14:09:50;98281.03;;;9.05;35.88
9423;BME280;65863;49.506;10.400;2023-04-05T14:12:34;98267.44;;;8.82;35.68
9423;BME280;65863;49.506;10.400;2023-04-05T14:15:18;98296.03;;;9.47;35.41
9423;BME280;65863;49.506;10.400;2023-04-05T14:18:02;98313.38;;;9.59;35.14
9423;BME280;65863;49.506;10.400;2023-04-05T14:20:47;98304.31;;;9.40;35.26
9423;BME280;65863;49.506;10.400;2023-04-05T14:23:30;98303.03;;;9.41;34.92
9423;BME280;65863;49.506;10.400;2023-04-05T14:26:15;98281.50;;;9.49;34.99
9423;BME280;65863;49.506;10.400;2023-04-05T14:28:59;98269.31;;;9.46;34.94
9423;BME280;65863;49.506;10.400;2023-04-05T14:31:44;98310.28;;;10.38;35.22
9423;BME280;65863;49.506;10.400;2023-04-05T14:34:28;98282.34;;;9.57;34.49
9423;BME280;65863;49.506;10.400;2023-04-05T14:37:12;98286.88;;;9.60;34.73
9423;BME280;65863;49.506;10.400;2023-04-05T14:39:56;98274.91;;;10.08;35.41
9423;BME280;65863;49.506;10.400;2023-04-05T14:42:40;98302.09;;;10.13;35.04
9423;BME280;65863;49.506;10.400;2023-04-05T14:45:24;98269.41;;;9.81;34.67
9423;BME280;65863;49.506;10.400;2023-04-05T14:48:12;98293.06;;;10.07;34.33
9423;BME280;65863;49.506;10.400;2023-04-05T14:50:56;98234.75;;;10.26;33.79
9423;BME280;65863;49.506;10.400;2023-04-05T14:53:41;98073.13;;;9.25;33.98
9423;BME280;65863;49.506;10.400;2023-04-05T14:56:26;98289.47;;;10.06;33.74
9423;BME280;65863;49.506;10.400;2023-04-05T14:59:10;98283.56;;;9.96;34.80
9423;BME280;65863;49.506;10.400;2023-04-05T15:01:54;98289.53;;;10.27;34.88
9423;BME280;65863;49.506;10.400;2023-04-05T15:04:38;98259.03;;;10.24;34.03
9423;BME280;65863;49.506;10.400;2023-04-05T15:07:24;98235.31;;;9.77;34.15
9423;BME280;65863;49.506;10.400;2023-04-05T15:10:08;98267.75;;;9.86;34.41
9423;BME280;65863;49.506;10.400;2023-04-05T15:12:53;98232.56;;;9.23;34.78
9423;BME280;65863;49.506;10.400;2023-04-05T15:15:37;98269.44;;;9.27;35.25